Time;durP1;ratioP1;P1;durP2;ratioP2;P2;SDS_P1;SDS_P2;PMS_P1;PMS_P2;Temp;Humidity;BMP_temperature;BMP_pressure;BME280_temperature;BME280_humidity;BME280_pressure;Samples;Min_cycle;Max_cycle;Signal;HPM_P1;HPM_P2
2022/03/03 04:38:09;;;;;;;11.13;10.83;;;-4.10;99.90;;;;;;6125903;22;20322;-84
2022/03/03 05:49:14;;;;;;;11.23;10.93;;;-3.60;99.90;;;;;;4857904;22;1489276;-80
2022/03/03 05:51:41;;;;;;;11.47;11.17;;;-3.60;99.90;;;;;;5156047;27;20226;-80
2022/03/03 05:54:09;;;;;;;10.87;10.57;;;-3.60;99.90;;;;;;5155521;27;20228;-80
2022/03/03 05:56:40;;;;;;;11.10;10.80;;;-3.70;99.90;;;;;;5156675;27;20235;-80
2022/03/03 05:59:12;;;;;;;11.37;11.07;;;-3.60;99.90;;;;;;5155950;27;20246;-80
2022/03/03 06:01:43;;;;;;;11.23;10.93;;;-3.60;99.90;;;;;;5155952;27;21084;-80
2022/03/03 06:04:16;;;;;;;10.63;10.33;;;-3.70;99.90;;;;;;5156296;27;20298;-80
2022/03/03 06:06:54;;;;;;;11.10;10.80;;;-3.70;99.90;;;;;;5156907;27;20236;-80
2022/03/03 06:09:26;;;;;;;11.20;10.90;;;-3.70;99.90;;;;;;5155991;27;20245;-80
2022/03/03 06:12:04;;;;;;;11.23;10.93;;;-3.70;99.90;;;;;;5155655;27;20227;-81
2022/03/03 06:14:39;;;;;;;11.60;11.20;;;-3.70;99.90;;;;;;5156421;27;20227;-80
2022/03/03 06:17:09;;;;;;;10.77;10.47;;;-3.70;99.90;;;;;;5155977;27;20300;-80
2022/03/03 06:19:41;;;;;;;11.20;10.90;;;-3.70;99.90;;;;;;5155457;27;20304;-81
2022/03/03 06:22:10;;;;;;;11.17;10.87;;;-3.70;99.90;;;;;;5155732;27;20240;-81
2022/03/03 06:24:39;;;;;;;10.90;10.60;;;-3.70;99.90;;;;;;5159434;27;20227;-82
2022/03/03 06:27:08;;;;;;;11.10;10.80;;;-3.70;99.90;;;;;;5155904;27;20242;-81
2022/03/03 06:29:36;;;;;;;10.90;10.60;;;-3.60;99.90;;;;;;5150636;27;20228;-82
2022/03/03 06:32:05;;;;;;;10.97;10.67;;;-3.60;99.90;;;;;;5142116;27;20231;-82
2022/03/03 06:34:33;;;;;;;10.63;10.33;;;-3.50;99.90;;;;;;5142061;27;20239;-81
2022/03/03 06:37:02;;;;;;;11.50;11.20;;;-3.50;99.90;;;;;;5141911;27;20230;-82
2022/03/03 06:39:30;;;;;;;11.00;10.70;;;-3.50;99.90;;;;;;5141620;27;20232;-82
2022/03/03 06:41:58;;;;;;;11.00;10.70;;;-3.40;99.90;;;;;;5143343;27;20228;-81
2022/03/03 06:44:26;;;;;;;10.47;10.17;;;-3.30;99.90;;;;;;5147183;27;20227;-81
2022/03/03 06:46:54;;;;;;;10.93;10.63;;;-3.30;99.90;;;;;;5143805;27;20221;-82
2022/03/03 06:49:23;;;;;;;10.70;10.40;;;-3.30;99.90;;;;;;5142719;27;20300;-82
2022/03/03 06:51:53;;;;;;;11.03;10.73;;;-3.20;99.90;;;;;;5142270;27;20254;-81
2022/03/03 06:54:25;;;;;;;11.10;10.80;;;-3.20;99.90;;;;;;5144542;27;20223;-82
2022/03/03 06:56:55;;;;;;;10.37;10.07;;;-3.20;99.90;;;;;;5142641;27;20232;-82
2022/03/03 06:59:25;;;;;;;11.00;10.70;;;-3.30;99.90;;;;;;5142885;27;20244;-81
2022/03/03 07:01:54;;;;;;;10.73;10.43;;;-3.30;99.90;;;;;;5144679;27;20516;-81
2022/03/03 07:04:23;;;;;;;11.00;10.70;;;-3.30;99.90;;;;;;5145703;27;20235;-80
2022/03/03 07:06:51;;;;;;;11.27;10.97;;;-3.30;99.90;;;;;;5144559;27;20236;-80
2022/03/03 07:09:21;;;;;;;11.37;11.03;;;-3.20;99.90;;;;;;5143514;27;20243;-80
2022/03/03 07:11:50;;;;;;;11.00;10.70;;;-3.10;99.90;;;;;;5142594;27;20224;-80
2022/03/03 07:14:19;;;;;;;10.63;10.33;;;-3.10;99.90;;;;;;5147077;27;20258;-81
2022/03/03 07:16:54;;;;;;;10.93;10.63;;;-3.00;99.90;;;;;;5141948;27;20264;-81
2022/03/03 07:19:48;;;;;;;10.93;10.63;;;-2.90;99.90;;;;;;5141717;27;20624;-81
2022/03/03 07:22:22;;;;;;;10.97;10.67;;;-2.80;99.90;;;;;;5141805;27;20228;-81
2022/03/03 07:24:59;;;;;;;10.83;10.53;;;-2.70;99.90;;;;;;5141644;27;20224;-81
2022/03/03 07:27:27;;;;;;;10.80;10.50;;;-2.60;99.90;;;;;;5140856;27;20700;-81
2022/03/03 07:30:00;;;;;;;10.13;9.83;;;-2.50;99.90;;;;;;5141360;27;20316;-81
2022/03/03 07:32:33;;;;;;;10.70;10.40;;;-2.30;99.90;;;;;;5140975;27;20240;-81
2022/03/03 07:35:10;;;;;;;10.30;10.00;;;-2.10;99.90;;;;;;5141275;27;20260;-81
2022/03/03 07:37:42;;;;;;;10.60;10.30;;;-2.00;99.90;;;;;;5148932;27;20232;-81
2022/03/03 07:40:12;;;;;;;10.13;9.83;;;-1.90;99.90;;;;;;5142813;27;20328;-81
2022/03/03 07:42:41;;;;;;;10.77;10.47;;;-1.80;99.90;;;;;;5139961;27;20251;-81
2022/03/03 07:45:09;;;;;;;10.70;10.40;;;-1.70;99.90;;;;;;5141276;27;20298;-81
2022/03/03 07:47:39;;;;;;;10.50;10.20;;;-1.60;99.90;;;;;;5141723;27;20694;-81
2022/03/03 07:50:08;;;;;;;10.60;10.30;;;-1.50;99.90;;;;;;5146868;27;20264;-81
2022/03/03 07:52:36;;;;;;;10.50;10.20;;;-1.40;99.90;;;;;;5148852;27;20238;-81
2022/03/03 07:55:05;;;;;;;10.40;10.10;;;-1.30;99.90;;;;;;5146959;27;20225;-81
2022/03/03 07:57:40;;;;;;;10.63;10.33;;;-1.20;99.90;;;;;;5141683;27;20242;-81
2022/03/03 08:00:13;;;;;;;10.10;9.80;;;-1.10;99.90;;;;;;5141411;27;20248;-81
2022/03/03 08:02:43;;;;;;;10.57;10.27;;;-1.10;99.90;;;;;;5141557;27;20235;-81
2022/03/03 08:05:12;;;;;;;10.30;10.00;;;-1.00;99.90;;;;;;5142496;27;20212;-81
2022/03/03 08:07:44;;;;;;;10.10;9.80;;;-0.90;99.90;;;;;;5141720;27;20234;-81
2022/03/03 08:10:15;;;;;;;10.60;10.30;;;-0.70;99.90;;;;;;5139356;27;20232;-81
2022/03/03 08:12:46;;;;;;;10.40;10.10;;;-0.60;99.90;;;;;;5138551;27;20231;-81
2022/03/03 08:15:14;;;;;;;10.30;10.00;;;-0.40;99.90;;;;;;5139384;27;20230;-81
2022/03/03 08:17:44;;;;;;;10.10;9.80;;;-0.20;99.90;;;;;;5140284;27;20236;-81
2022/03/03 08:20:13;;;;;;;10.17;9.87;;;-0.10;99.90;;;;;;5141423;27;20271;-80
2022/03/03 08:22:41;;;;;;;10.40;10.10;;;0.10;99.90;;;;;;5140859;27;20232;-81
2022/03/03 08:25:11;;;;;;;10.03;9.73;;;0.20;99.90;;;;;;5140385;27;20216;-81
2022/03/03 08:27:40;;;;;;;10.50;10.20;;;0.30;99.90;;;;;;5141864;27;20240;-81
2022/03/03 08:30:12;;;;;;;10.37;10.07;;;0.50;99.90;;;;;;5141452;27;20319;-81
2022/03/03 08:32:42;;;;;;;10.53;10.23;;;0.60;99.90;;;;;;5140425;27;20227;-81
2022/03/03 08:35:15;;;;;;;10.03;9.73;;;0.80;99.90;;;;;;5139773;27;20224;-81
2022/03/03 08:37:45;;;;;;;10.30;10.00;;;0.80;99.90;;;;;;5139563;27;20230;-81
2022/03/03 08:40:16;;;;;;;10.33;10.03;;;0.90;99.90;;;;;;5138845;27;20243;-81
2022/03/03 08:42:51;;;;;;;10.20;9.90;;;1.10;99.90;;;;;;5138929;27;20227;-81
2022/03/03 08:45:22;;;;;;;10.40;10.10;;;1.20;99.90;;;;;;5138942;27;20253;-80
2022/03/03 08:47:57;;;;;;;9.93;9.63;;;1.40;99.90;;;;;;5139319;27;20713;-81
2022/03/03 08:50:28;;;;;;;10.07;9.77;;;1.60;99.90;;;;;;5137875;27;20334;-81
2022/03/03 08:52:57;;;;;;;10.37;10.07;;;1.70;99.90;;;;;;5138087;27;20239;-81
2022/03/03 08:55:27;;;;;;;10.10;9.80;;;1.80;99.90;;;;;;5138754;27;20234;-81
2022/03/03 08:57:56;;;;;;;10.03;9.73;;;2.10;99.90;;;;;;5138910;27;20236;-81
2022/03/03 09:00:25;;;;;;;10.00;9.70;;;2.40;99.90;;;;;;5139149;27;20326;-81
2022/03/03 09:02:54;;;;;;;10.17;9.87;;;2.50;99.90;;;;;;5138666;27;20705;-81
2022/03/03 09:05:21;;;;;;;10.23;9.93;;;2.60;99.90;;;;;;5138711;27;20281;-81
2022/03/03 09:07:50;;;;;;;9.87;9.57;;;2.60;99.90;;;;;;5139106;27;20228;-81
2022/03/03 09:10:19;;;;;;;9.90;9.60;;;2.90;99.90;;;;;;5139001;27;20320;-81
2022/03/03 09:12:47;;;;;;;10.00;9.70;;;3.20;99.90;;;;;;5139331;27;20271;-81
2022/03/03 09:15:15;;;;;;;10.00;9.70;;;3.40;99.90;;;;;;5140203;27;20760;-81
2022/03/03 09:17:45;;;;;;;10.10;9.80;;;3.70;99.90;;;;;;5141735;27;20277;-81
2022/03/03 09:20:15;;;;;;;10.07;9.77;;;3.90;99.90;;;;;;5139130;27;20224;-81
2022/03/03 09:22:43;;;;;;;10.47;10.17;;;4.20;99.90;;;;;;5139158;27;20320;-81
2022/03/03 09:25:11;;;;;;;9.87;9.57;;;4.40;99.90;;;;;;5138418;27;20208;-81
2022/03/03 09:27:39;;;;;;;9.70;9.40;;;4.60;99.90;;;;;;5139645;27;20224;-81
2022/03/03 09:30:10;;;;;;;10.00;9.70;;;4.80;99.90;;;;;;5139406;27;20338;-81
2022/03/03 09:32:39;;;;;;;10.13;9.83;;;4.70;99.90;;;;;;5140634;27;20368;-81
2022/03/03 09:35:10;;;;;;;10.20;9.90;;;5.00;99.90;;;;;;5139886;27;20216;-81
2022/03/03 09:37:38;;;;;;;10.07;9.77;;;5.20;99.90;;;;;;5148951;27;20223;-81
2022/03/03 09:40:07;;;;;;;9.80;9.50;;;5.50;99.90;;;;;;5140548;27;20244;-80
2022/03/03 09:42:35;;;;;;;9.83;9.53;;;5.70;99.90;;;;;;5138475;27;20235;-81
2022/03/03 09:45:04;;;;;;;10.40;10.10;;;5.90;99.90;;;;;;5139120;27;20235;-80
2022/03/03 09:47:34;;;;;;;10.10;9.80;;;6.10;99.90;;;;;;5138902;27;20224;-80
2022/03/03 09:50:02;;;;;;;10.60;10.30;;;6.30;99.90;;;;;;5138047;27;20289;-80
2022/03/03 09:52:32;;;;;;;10.40;10.10;;;6.60;99.90;;;;;;5138412;27;20227;-80
2022/03/03 09:55:00;;;;;;;10.50;10.20;;;6.60;99.90;;;;;;5138975;27;20301;-80
2022/03/03 09:57:28;;;;;;;10.63;10.33;;;6.80;99.90;;;;;;5139807;27;20247;-80
2022/03/03 09:59:56;;;;;;;10.57;10.27;;;7.00;99.90;;;;;;5139312;27;20236;-81
2022/03/03 10:02:24;;;;;;;10.57;10.27;;;7.20;99.90;;;;;;5138998;27;20228;-80
2022/03/03 10:04:56;;;;;;;10.33;10.03;;;7.40;99.90;;;;;;5140552;27;20293;-80
2022/03/03 10:07:25;;;;;;;10.40;10.10;;;7.50;99.90;;;;;;5142690;27;20223;-81
2022/03/03 10:10:05;;;;;;;10.30;10.00;;;7.50;99.90;;;;;;5155051;27;20307;-80
2022/03/03 10:12:45;;;;;;;10.20;9.90;;;7.40;99.90;;;;;;5154996;27;20232;-81
2022/03/03 10:15:17;;;;;;;10.00;9.70;;;7.80;99.90;;;;;;5155606;27;20235;-80
2022/03/03 10:17:45;;;;;;;10.03;9.73;;;8.00;99.90;;;;;;5151173;27;20223;-80
2022/03/03 10:20:13;;;;;;;9.80;9.50;;;8.10;99.90;;;;;;5144102;27;20236;-80
2022/03/03 10:22:47;;;;;;;9.60;9.30;;;7.90;99.90;;;;;;5146698;27;20242;-80
2022/03/03 10:25:29;;;;;;;9.60;9.30;;;8.00;99.90;;;;;;5142734;27;20273;-79
2022/03/03 10:27:56;;;;;;;10.10;9.80;;;8.10;99.90;;;;;;5142119;27;20258;-80
2022/03/03 10:30:24;;;;;;;10.10;9.80;;;8.30;99.90;;;;;;5142581;27;20282;-80
2022/03/03 10:32:52;;;;;;;10.27;9.97;;;8.70;99.90;;;;;;5142386;27;20232;-80
2022/03/03 10:35:21;;;;;;;10.17;9.87;;;8.80;99.90;;;;;;5141453;27;20228;-80
2022/03/03 10:37:50;;;;;;;10.40;10.10;;;9.10;99.90;;;;;;5143250;27;20227;-80
2022/03/03 10:40:20;;;;;;;10.40;10.10;;;9.30;99.90;;;;;;5141883;27;20232;-80
2022/03/03 10:42:50;;;;;;;10.30;10.00;;;9.50;99.90;;;;;;5143572;27;20236;-80
2022/03/03 10:45:21;;;;;;;10.50;10.20;;;9.50;99.90;;;;;;5142604;27;20278;-80
2022/03/03 10:48:01;;;;;;;10.50;10.20;;;9.70;99.90;;;;;;5142509;27;20232;-80
2022/03/03 10:50:45;;;;;;;10.13;9.83;;;9.60;99.90;;;;;;5141479;27;20232;-80
2022/03/03 10:53:17;;;;;;;10.00;9.70;;;9.80;99.90;;;;;;5142721;27;20220;-80
2022/03/03 10:56:02;;;;;;;9.90;9.60;;;10.20;99.90;;;;;;5142973;27;20246;-80
2022/03/03 10:58:46;;;;;;;10.10;9.80;;;10.40;99.90;;;;;;5142813;27;20220;-80
2022/03/03 11:01:15;;;;;;;10.00;9.70;;;10.70;99.90;;;;;;5143810;27;20258;-80
2022/03/03 11:03:49;;;;;;;10.30;10.00;;;10.90;99.90;;;;;;5145911;27;20224;-80
2022/03/03 11:06:19;;;;;;;10.33;10.03;;;11.00;99.90;;;;;;5142917;27;20215;-79
2022/03/03 11:08:48;;;;;;;10.13;9.83;;;10.90;99.90;;;;;;5142486;27;20294;-80
2022/03/03 11:11:18;;;;;;;10.30;10.00;;;10.80;99.90;;;;;;5143180;27;20236;-80
2022/03/03 11:13:49;;;;;;;10.10;9.80;;;11.10;99.90;;;;;;5143392;27;20228;-80
2022/03/03 11:16:18;;;;;;;10.17;9.87;;;11.10;99.90;;;;;;5149143;27;20228;-79
2022/03/03 11:18:46;;;;;;;10.37;10.07;;;11.10;99.90;;;;;;5148823;27;20277;-80
2022/03/03 11:21:14;;;;;;;10.37;10.07;;;11.30;99.90;;;;;;5143713;27;20243;-79
2022/03/03 11:23:45;;;;;;;10.47;10.17;;;11.30;99.90;;;;;;5143330;27;20308;-79
2022/03/03 11:26:24;;;;;;;10.80;10.50;;;11.60;99.90;;;;;;5156659;27;20204;-80
2022/03/03 11:29:00;;;;;;;10.47;10.17;;;11.60;99.90;;;;;;5160621;27;20236;-80
2022/03/03 11:31:31;;;;;;;10.60;10.30;;;11.70;99.90;;;;;;5161203;27;20228;-80
2022/03/03 11:34:29;;;;;;;10.23;9.93;;;12.00;99.90;;;;;;5160359;27;20246;-80
2022/03/03 11:37:08;;;;;;;10.30;10.00;;;12.20;99.90;;;;;;5157922;27;20220;-80
2022/03/03 11:39:42;;;;;;;10.50;10.20;;;12.50;99.90;;;;;;5157957;27;20266;-80
2022/03/03 11:42:32;;;;;;;10.10;9.80;;;12.50;99.90;;;;;;5155879;27;20231;-80
2022/03/03 11:45:03;;;;;;;10.40;10.10;;;12.90;99.90;;;;;;5157838;27;20220;-80
2022/03/03 11:47:34;;;;;;;10.30;10.00;;;12.90;99.90;;;;;;5160693;27;20219;-80
2022/03/03 14:42:43;;;;;;;10.88;10.57;;;16.30;76.10;;;;;;4812354;29;20288;-87
2022/03/03 14:45:12;;;;;;;10.70;10.40;;;16.50;74.10;;;;;;5066088;28;20214;-86
2022/03/03 15:33:05;;;;;;;10.90;10.60;;;16.80;68.90;;;;;;4862423;29;20417;-83
2022/03/03 16:04:33;;;;;;;10.30;10.00;;;13.40;71.30;;;;;;4964938;28;20234;-84
2022/03/03 16:44:52;;;;;;;;;;;;;;;;;;;;;
2022/03/03 17:03:39;;;;;;;9.77;9.47;;;8.60;90.10;;;;;;5036967;28;20213;-85
2022/03/03 17:07:03;;;;;;;9.90;9.60;;;8.50;90.40;;;;;;5134631;27;20429;-87
2022/03/03 17:20:28;;;;;;;9.83;9.53;;;8.30;91.30;;;;;;5073134;28;20282;-87
2022/03/03 17:31:00;;;;;;;9.40;9.10;;;7.80;91.70;;;;;;5051312;28;20236;-87
2022/03/03 17:40:30;;;;;;;9.53;9.23;;;7.40;92.70;;;;;;5115577;28;20311;-84
2022/03/03 17:43:10;;;;;;;9.60;9.30;;;7.30;92.80;;;;;;5118827;28;20228;-85
2022/03/03 17:51:54;;;;;;;9.30;9.00;;;6.70;94.40;;;;;;5161049;22;20331;-81
2022/03/03 17:54:24;;;;;;;9.23;8.93;;;6.50;94.80;;;;;;5140422;27;20239;-81
2022/03/03 17:56:53;;;;;;;9.30;9.00;;;6.50;95.20;;;;;;5123546;27;20228;-81
2022/03/03 17:59:22;;;;;;;9.20;8.90;;;6.40;95.60;;;;;;5142128;27;20224;-82
2022/03/03 18:01:50;;;;;;;9.70;9.40;;;6.30;96.50;;;;;;5121900;27;20272;-82
2022/03/03 18:04:18;;;;;;;8.80;8.60;;;6.20;96.60;;;;;;5119586;28;20259;-80
2022/03/03 18:06:46;;;;;;;9.47;9.17;;;6.10;97.00;;;;;;5118303;28;20233;-80
2022/03/03 18:09:14;;;;;;;9.50;9.20;;;6.10;97.40;;;;;;5117492;28;20236;-78
2022/03/03 18:11:44;;;;;;;9.40;9.10;;;6.00;97.70;;;;;;5117440;28;20255;-80
2022/03/03 18:14:12;;;;;;;9.20;8.90;;;5.90;98.20;;;;;;5118895;27;20296;-80
2022/03/03 18:16:41;;;;;;;9.63;9.33;;;5.80;98.60;;;;;;5119898;28;20225;-80
2022/03/03 18:19:08;;;;;;;9.47;9.17;;;5.60;99.30;;;;;;5119920;28;20229;-79
2022/03/03 18:21:36;;;;;;;9.40;9.10;;;5.50;99.80;;;;;;5120029;28;20228;-80
2022/03/03 18:24:05;;;;;;;9.43;9.13;;;5.50;99.90;;;;;;5121496;28;20296;-81
2022/03/03 18:26:33;;;;;;;9.40;9.10;;;5.40;99.90;;;;;;5119688;27;20231;-79
2022/03/03 18:29:03;;;;;;;9.50;9.20;;;5.40;99.90;;;;;;5121400;28;20265;-78
2022/03/03 18:31:32;;;;;;;9.50;9.20;;;5.30;99.90;;;;;;5120442;28;20323;-80
2022/03/03 18:34:00;;;;;;;9.40;9.10;;;5.30;99.90;;;;;;5119677;27;20224;-79
2022/03/03 18:36:28;;;;;;;9.47;9.17;;;5.20;99.90;;;;;;5119482;28;20231;-79
2022/03/03 18:38:56;;;;;;;9.77;9.47;;;5.10;99.90;;;;;;5119058;28;20229;-79
2022/03/03 18:41:24;;;;;;;9.27;8.97;;;5.10;99.90;;;;;;5120559;28;20275;-80
2022/03/03 18:43:51;;;;;;;9.20;8.93;;;5.10;99.90;;;;;;5121547;28;20228;-78
2022/03/03 18:46:21;;;;;;;9.30;9.00;;;5.10;99.90;;;;;;5122874;28;20240;-80
2022/03/03 18:48:49;;;;;;;9.57;9.27;;;5.00;99.90;;;;;;5120844;28;20220;-79
2022/03/03 18:51:17;;;;;;;9.33;9.03;;;4.90;99.90;;;;;;5126779;28;20233;-77
2022/03/03 18:53:45;;;;;;;9.23;8.93;;;4.80;99.90;;;;;;5125222;27;20236;-81
2022/03/03 18:56:13;;;;;;;8.90;8.70;;;4.80;99.90;;;;;;5126910;28;20239;-80
2022/03/03 18:58:41;;;;;;;9.20;8.90;;;4.80;99.90;;;;;;5121770;28;20260;-81
2022/03/03 19:01:09;;;;;;;9.30;9.00;;;4.70;99.90;;;;;;5123718;28;20248;-81
2022/03/03 19:03:39;;;;;;;9.27;8.97;;;4.70;99.90;;;;;;5130634;28;20232;-81
2022/03/03 19:06:08;;;;;;;9.33;9.03;;;4.60;99.90;;;;;;5122708;28;20224;-81
2022/03/03 19:08:37;;;;;;;9.60;9.30;;;4.50;99.90;;;;;;5122817;28;20217;-81
2022/03/03 19:11:07;;;;;;;9.50;9.20;;;4.50;99.90;;;;;;5118581;27;20243;-80
2022/03/03 19:13:37;;;;;;;9.30;9.00;;;4.60;99.90;;;;;;5119648;28;20233;-80
2022/03/03 19:16:06;;;;;;;9.53;9.23;;;4.60;99.90;;;;;;5123057;28;20229;-79
2022/03/03 19:18:34;;;;;;;8.97;8.77;;;4.50;99.90;;;;;;5122813;28;20247;-81
2022/03/03 19:21:07;;;;;;;9.20;8.90;;;4.50;99.90;;;;;;5122223;27;20241;-80
2022/03/03 19:23:36;;;;;;;9.30;9.00;;;4.50;99.90;;;;;;5122097;28;20228;-80
2022/03/03 19:26:03;;;;;;;9.57;9.27;;;4.40;99.90;;;;;;5121735;28;20228;-80
2022/03/03 19:28:31;;;;;;;9.53;9.23;;;4.30;99.90;;;;;;5121945;28;20225;-81
2022/03/03 19:30:59;;;;;;;9.50;9.20;;;4.20;99.90;;;;;;5121460;27;20233;-81
2022/03/03 19:36:14;;;;;;;9.40;9.10;;;4.10;99.90;;;;;;5121667;28;20681;-79
2022/03/03 19:38:42;;;;;;;9.30;9.00;;;4.00;99.90;;;;;;5122539;28;20285;-79
2022/03/03 19:41:15;;;;;;;9.03;8.83;;;4.00;99.90;;;;;;5120435;28;20237;-80
2022/03/03 19:43:44;;;;;;;9.20;8.90;;;3.90;99.90;;;;;;5130505;28;20236;-80
2022/03/03 19:46:15;;;;;;;9.00;8.80;;;3.90;99.90;;;;;;5132661;28;20233;-80
2022/03/03 19:48:43;;;;;;;9.37;9.07;;;3.90;99.90;;;;;;5123587;28;20221;-80
2022/03/03 19:51:15;;;;;;;9.00;8.80;;;3.80;99.90;;;;;;5126526;27;20267;-80
2022/03/03 19:53:44;;;;;;;9.23;8.93;;;3.80;99.90;;;;;;5133425;28;20229;-80
2022/03/03 19:56:12;;;;;;;9.50;9.20;;;3.70;99.90;;;;;;5133635;28;20247;-81
2022/03/03 19:58:40;;;;;;;9.47;9.17;;;3.60;99.90;;;;;;5129549;28;20244;-80
2022/03/03 20:01:08;;;;;;;9.43;9.13;;;3.60;99.90;;;;;;5130656;27;20265;-79
2022/03/03 20:03:39;;;;;;;9.10;8.80;;;3.60;99.90;;;;;;5129267;28;20241;-80
2022/03/03 20:06:07;;;;;;;9.63;9.33;;;3.50;99.90;;;;;;5119734;28;20239;-79
2022/03/03 20:11:18;;;;;;;9.60;9.30;;;3.40;99.90;;;;;;5129052;27;20263;-79
2022/03/03 20:13:46;;;;;;;9.70;9.40;;;3.40;99.90;;;;;;5130832;28;20233;-80
2022/03/03 20:16:14;;;;;;;9.40;9.10;;;3.40;99.90;;;;;;5137599;27;20243;-80
2022/03/03 20:18:42;;;;;;;9.17;8.97;;;3.30;99.90;;;;;;5119568;28;20233;-79
2022/03/03 20:21:18;;;;;;;9.20;9.00;;;3.30;99.90;;;;;;5121640;27;20232;-79
2022/03/03 20:23:46;;;;;;;9.10;8.90;;;3.10;99.90;;;;;;5127873;28;20243;-79
2022/03/03 20:26:15;;;;;;;9.03;8.83;;;3.10;99.90;;;;;;5126219;28;20243;-79
2022/03/03 20:28:46;;;;;;;9.73;9.43;;;3.00;99.90;;;;;;5126127;28;20229;-80
2022/03/03 20:31:15;;;;;;;10.00;9.70;;;3.00;99.90;;;;;;5129108;28;20302;-81
2022/03/03 20:33:43;;;;;;;9.60;9.30;;;3.00;99.90;;;;;;5128307;28;20233;-80
2022/03/03 20:36:11;;;;;;;9.50;9.20;;;2.90;99.90;;;;;;5127118;28;20224;-79
2022/03/03 20:38:39;;;;;;;9.43;9.13;;;2.90;99.90;;;;;;5125762;27;20287;-79
2022/03/03 20:41:07;;;;;;;9.70;9.40;;;2.80;99.90;;;;;;5126031;28;20232;-79
2022/03/03 20:43:52;;;;;;;9.70;9.40;;;2.80;99.90;;;;;;5125335;28;20282;-79
2022/03/03 20:46:23;;;;;;;9.30;9.00;;;2.80;99.90;;;;;;5134309;27;20224;-79
2022/03/03 20:48:59;;;;;;;9.80;9.50;;;2.70;99.90;;;;;;5133225;27;20220;-80
2022/03/03 20:51:27;;;;;;;9.80;9.50;;;2.80;99.90;;;;;;5122059;28;20243;-80
2022/03/03 20:53:55;;;;;;;9.80;9.50;;;2.80;99.90;;;;;;5122047;28;20259;-79
2022/03/03 20:56:24;;;;;;;9.63;9.33;;;2.80;99.90;;;;;;5121795;28;20225;-79
2022/03/03 20:58:56;;;;;;;9.50;9.20;;;2.80;99.90;;;;;;5134076;27;20220;-79
2022/03/03 21:01:28;;;;;;;9.70;9.40;;;2.80;99.90;;;;;;5139403;27;20239;-78
2022/03/03 21:03:58;;;;;;;9.27;8.97;;;2.90;99.90;;;;;;5121211;27;20213;-78
2022/03/03 21:06:29;;;;;;;9.60;9.30;;;2.80;99.90;;;;;;5137354;27;20255;-78
2022/03/03 21:08:57;;;;;;;9.70;9.40;;;2.70;99.90;;;;;;5137247;27;20212;-77
2022/03/03 21:11:26;;;;;;;9.90;9.60;;;2.70;99.90;;;;;;5137464;27;20220;-77
2022/03/03 21:13:56;;;;;;;9.27;8.97;;;2.70;99.90;;;;;;5137688;27;20242;-78
2022/03/03 21:16:24;;;;;;;9.27;8.97;;;2.70;99.90;;;;;;5136960;27;20236;-78
2022/03/03 21:18:51;;;;;;;9.60;9.30;;;2.60;99.90;;;;;;5134684;27;20212;-77
2022/03/03 21:21:19;;;;;;;9.57;9.27;;;2.60;99.90;;;;;;5137058;27;20243;-76
2022/03/03 21:23:47;;;;;;;9.50;9.20;;;2.50;99.90;;;;;;5136518;27;20250;-77
2022/03/03 21:26:15;;;;;;;9.67;9.37;;;2.40;99.90;;;;;;5137751;27;20259;-77
2022/03/03 21:28:43;;;;;;;9.60;9.30;;;2.40;99.90;;;;;;5137309;27;20232;-77
2022/03/03 21:31:13;;;;;;;9.30;9.00;;;2.40;99.90;;;;;;5136468;27;20233;-76
2022/03/03 21:33:41;;;;;;;9.67;9.37;;;2.30;99.90;;;;;;5137165;27;20212;-79
2022/03/03 21:36:09;;;;;;;9.60;9.30;;;2.40;99.90;;;;;;5136732;27;20239;-78
2022/03/03 21:38:37;;;;;;;9.70;9.40;;;2.30;99.90;;;;;;5134347;27;20362;-80
2022/03/03 21:41:07;;;;;;;9.53;9.23;;;2.20;99.90;;;;;;5117020;28;20290;-79
2022/03/03 21:43:35;;;;;;;9.70;9.40;;;2.30;99.90;;;;;;5116399;28;20228;-78
2022/03/03 21:46:03;;;;;;;9.50;9.20;;;2.30;99.90;;;;;;5125250;28;20235;-77
2022/03/03 21:48:33;;;;;;;9.50;9.20;;;2.40;99.90;;;;;;5132549;28;20225;-78
2022/03/03 21:51:01;;;;;;;9.40;9.10;;;2.40;99.90;;;;;;5119998;28;20323;-79
2022/03/03 21:53:29;;;;;;;9.60;9.30;;;2.50;99.90;;;;;;5117900;28;20294;-79
2022/03/03 21:55:57;;;;;;;9.40;9.10;;;2.50;99.90;;;;;;5121896;28;20229;-79
2022/03/03 21:58:26;;;;;;;9.60;9.30;;;2.40;99.90;;;;;;5123586;28;20278;-79
2022/03/03 22:00:54;;;;;;;9.10;8.83;;;2.40;99.90;;;;;;5124523;27;20229;-79
2022/03/03 22:03:22;;;;;;;9.77;9.47;;;2.30;99.90;;;;;;5124577;28;20752;-79
2022/03/03 22:05:52;;;;;;;9.43;9.13;;;2.30;99.90;;;;;;5119897;28;20297;-79
2022/03/03 22:08:20;;;;;;;9.67;9.37;;;2.20;99.90;;;;;;5119874;28;20233;-79
2022/03/03 22:10:48;;;;;;;9.53;9.23;;;2.10;99.90;;;;;;5119405;28;20228;-78
2022/03/03 22:13:17;;;;;;;9.80;9.50;;;2.10;99.90;;;;;;5121113;28;20388;-79
2022/03/03 22:15:49;;;;;;;9.90;9.60;;;2.20;99.90;;;;;;5123361;28;20232;-79
2022/03/03 22:18:17;;;;;;;9.40;9.10;;;2.20;99.90;;;;;;5124860;28;20237;-79
2022/03/03 22:20:46;;;;;;;9.40;9.10;;;2.00;99.90;;;;;;5117913;27;20231;-78
2022/03/03 22:23:15;;;;;;;9.37;9.07;;;1.80;99.90;;;;;;5118267;28;20282;-79
2022/03/03 22:25:43;;;;;;;9.47;9.17;;;1.80;99.90;;;;;;5119184;28;20251;-79
2022/03/03 22:28:11;;;;;;;9.70;9.40;;;1.70;99.90;;;;;;5119734;28;20221;-79
2022/03/03 22:30:39;;;;;;;9.57;9.27;;;1.60;99.90;;;;;;5118264;28;20233;-78
2022/03/03 22:33:07;;;;;;;9.13;8.90;;;1.50;99.90;;;;;;5118534;28;20236;-79
2022/03/03 22:35:35;;;;;;;9.60;9.30;;;1.40;99.90;;;;;;5118006;28;20231;-78
2022/03/03 22:38:05;;;;;;;9.80;9.50;;;1.40;99.90;;;;;;5118011;28;20228;-77
2022/03/03 22:40:36;;;;;;;9.30;9.00;;;1.30;99.90;;;;;;5116603;27;20255;-77
2022/03/03 22:43:04;;;;;;;9.63;9.33;;;1.30;99.90;;;;;;5118264;28;20262;-78
2022/03/03 22:45:33;;;;;;;9.80;9.50;;;1.30;99.90;;;;;;5118253;28;20232;-76
2022/03/03 22:48:01;;;;;;;9.70;9.40;;;1.30;99.90;;;;;;5117822;28;20233;-77
2022/03/03 22:53:14;;;;;;;9.53;9.23;;;1.20;99.90;;;;;;5118343;28;20237;-78
2022/03/03 22:55:43;;;;;;;9.63;9.33;;;1.20;99.90;;;;;;5117937;28;20232;-77
2022/03/03 22:58:14;;;;;;;9.57;9.27;;;1.20;99.90;;;;;;5119033;28;20225;-78
2022/03/03 23:01:20;;;;;;;9.70;9.40;;;1.20;99.90;;;;;;5117485;27;20232;-79
2022/03/03 23:06:34;;;;;;;9.57;9.27;;;1.30;99.90;;;;;;5119351;28;20209;-82
2022/03/03 23:09:03;;;;;;;9.63;9.33;;;1.30;99.90;;;;;;5118887;28;20221;-79
2022/03/03 23:11:33;;;;;;;9.83;9.53;;;1.30;99.90;;;;;;5118004;27;20229;-80
2022/03/03 23:14:01;;;;;;;9.70;9.40;;;1.40;99.90;;;;;;5118679;28;20258;-78
2022/03/03 23:16:33;;;;;;;9.93;9.63;;;1.40;99.90;;;;;;5120645;28;20225;-79
2022/03/03 23:19:01;;;;;;;9.67;9.37;;;1.40;99.90;;;;;;5118497;28;20225;-78
2022/03/03 23:21:30;;;;;;;9.90;9.60;;;1.40;99.90;;;;;;5117053;27;20233;-78
2022/03/03 23:23:58;;;;;;;9.63;9.33;;;1.50;99.90;;;;;;5118833;28;20243;-78
2022/03/03 23:26:27;;;;;;;9.57;9.27;;;1.50;99.90;;;;;;5119248;28;20235;-78
2022/03/03 23:28:58;;;;;;;9.70;9.40;;;1.60;99.90;;;;;;5118577;28;20239;-78
2022/03/03 23:31:26;;;;;;;9.83;9.53;;;1.50;99.90;;;;;;5118762;27;20313;-78
2022/03/03 23:33:54;;;;;;;9.70;9.40;;;1.50;99.90;;;;;;5118375;28;20278;-78
2022/03/03 23:36:22;;;;;;;10.10;9.80;;;1.40;99.90;;;;;;5118567;28;20289;-78
2022/03/03 23:38:50;;;;;;;9.87;9.57;;;1.30;99.90;;;;;;5119228;28;20286;-78
2022/03/03 23:41:18;;;;;;;9.90;9.60;;;1.20;99.90;;;;;;5119009;27;20915;-79
2022/03/03 23:43:46;;;;;;;9.70;9.40;;;1.10;99.90;;;;;;5119582;28;20274;-78
2022/03/03 23:46:15;;;;;;;9.70;9.40;;;1.10;99.90;;;;;;5120001;28;20224;-79
2022/03/03 23:48:43;;;;;;;10.03;9.73;;;1.10;99.90;;;;;;5130900;28;20247;-79
2022/03/03 23:51:15;;;;;;;9.90;9.60;;;1.00;99.90;;;;;;5145719;22;20237;-82
2022/03/03 23:53:43;;;;;;;10.03;9.73;;;1.00;99.90;;;;;;5124045;28;20237;-82
2022/03/03 23:56:13;;;;;;;9.83;9.53;;;1.00;99.90;;;;;;5124472;28;20220;-81
2022/03/03 23:58:42;;;;;;;9.60;9.30;;;1.00;99.90;;;;;;5124280;28;20223;-81
